Time;durP1;ratioP1;P1;durP2;ratioP2;P2;SDS_P1;SDS_P2;PMS_P1;PMS_P2;Temp;Humidity;BMP_temperature;BMP_pressure;BME280_temperature;BME280_humidity;BME280_pressure;Samples;Min_cycle;Max_cycle;Signal;HPM_P1;HPM_P2
2022/06/16 00:00:28;;;;;;;6.60;1.92;;;14.70;99.90;;;;;;5028717;28;20064;-75
2022/06/16 00:02:54;;;;;;;4.75;2.08;;;14.50;99.90;;;;;;5025604;28;20041;-74
2022/06/16 00:05:25;;;;;;;2.92;1.90;;;14.70;99.90;;;;;;5033021;28;20048;-75
2022/06/16 00:07:52;;;;;;;5.13;2.15;;;14.70;99.90;;;;;;5030502;28;20048;-75
2022/06/16 00:10:21;;;;;;;3.60;2.08;;;14.90;99.90;;;;;;5029109;28;20523;-75
2022/06/16 00:12:47;;;;;;;7.43;2.25;;;14.60;99.90;;;;;;5027796;28;20449;-76
2022/06/16 00:15:17;;;;;;;6.00;2.38;;;14.70;99.90;;;;;;5024223;28;20437;-75
2022/06/16 00:17:43;;;;;;;4.45;2.03;;;14.70;99.90;;;;;;5031870;28;20172;-75
2022/06/16 00:20:09;;;;;;;6.90;2.55;;;14.70;99.90;;;;;;5031187;28;20053;-75
2022/06/16 00:22:36;;;;;;;6.57;2.28;;;14.70;99.90;;;;;;5029542;28;20401;-75
2022/06/16 00:25:03;;;;;;;3.30;2.20;;;14.70;99.90;;;;;;5031696;28;20504;-75
2022/06/16 00:27:29;;;;;;;7.57;2.78;;;14.60;99.90;;;;;;5019585;28;20053;-75
2022/06/16 00:29:54;;;;;;;9.73;3.10;;;15.60;99.90;;;;;;5034437;28;20396;-75
2022/06/16 00:32:20;;;;;;;6.00;2.53;;;14.60;99.90;;;;;;5017647;28;20124;-75
2022/06/16 00:34:46;;;;;;;7.10;2.55;;;14.50;99.90;;;;;;5018751;28;20415;-75
2022/06/16 00:37:12;;;;;;;4.82;2.35;;;14.50;99.90;;;;;;5016256;28;20128;-75
2022/06/16 00:39:37;;;;;;;6.95;2.90;;;14.50;99.90;;;;;;5015375;28;20516;-75
2022/06/16 00:42:14;;;;;;;5.85;2.83;;;14.40;99.90;;;;;;5036913;28;20377;-75
2022/06/16 00:44:43;;;;;;;5.60;2.30;;;14.40;99.90;;;;;;5019989;28;20098;-75
2022/06/16 00:47:08;;;;;;;3.40;2.47;;;14.50;99.90;;;;;;5022598;28;20044;-75
2022/06/16 00:49:36;;;;;;;4.43;2.60;;;14.40;99.90;;;;;;5011115;28;20033;-75
2022/06/16 00:52:08;;;;;;;6.32;2.97;;;14.50;99.90;;;;;;5035897;28;20041;-75
2022/06/16 00:54:43;;;;;;;4.55;2.85;;;14.40;99.90;;;;;;5030697;28;20104;-75
2022/06/16 00:57:14;;;;;;;4.85;2.80;;;14.50;99.90;;;;;;5028647;28;20601;-76
2022/06/16 00:59:42;;;;;;;5.75;2.50;;;14.50;99.90;;;;;;5038504;28;20044;-75
2022/06/16 01:02:08;;;;;;;4.32;2.70;;;14.40;99.90;;;;;;5030955;28;20061;-76
2022/06/16 01:04:53;;;;;;;4.40;2.75;;;15.00;99.90;;;;;;5028557;28;20044;-75
2022/06/16 01:07:26;;;;;;;3.80;2.55;;;15.50;99.90;;;;;;5025643;28;20048;-76
2022/06/16 01:09:54;;;;;;;5.25;2.75;;;14.40;99.90;;;;;;5016669;28;20256;-76
2022/06/16 01:15:46;;;;;;;3.75;2.20;;;14.30;99.90;;;;;;5025423;28;20124;-75
2022/06/16 01:18:37;;;;;;;5.82;2.92;;;14.30;99.90;;;;;;5005953;28;20053;-75
2022/06/16 01:21:10;;;;;;;3.97;2.22;;;14.40;99.90;;;;;;5036761;28;20049;-75
2022/06/16 01:24:13;;;;;;;3.85;2.28;;;14.40;99.90;;;;;;5020872;28;20054;-75
2022/06/16 01:27:00;;;;;;;8.13;2.97;;;14.20;99.90;;;;;;5016361;28;20520;-76
2022/06/16 01:29:36;;;;;;;3.75;2.50;;;14.30;99.90;;;;;;5039216;28;20485;-75
2022/06/16 01:32:20;;;;;;;4.72;2.78;;;14.10;99.90;;;;;;5018691;28;20132;-76
2022/06/16 01:35:19;;;;;;;7.95;3.10;;;14.10;99.90;;;;;;5030362;28;20497;-76
2022/06/16 01:38:00;;;;;;;4.53;2.80;;;14.10;99.90;;;;;;5023034;28;20517;-75
2022/06/16 01:40:44;;;;;;;3.92;2.50;;;14.10;99.90;;;;;;5013817;28;20510;-76
2022/06/16 01:43:34;;;;;;;6.80;2.42;;;14.00;99.90;;;;;;5037888;28;20048;-75
2022/06/16 01:46:32;;;;;;;3.75;2.30;;;14.00;99.90;;;;;;5012535;28;20366;-75
2022/06/16 01:49:05;;;;;;;5.82;2.45;;;14.00;99.90;;;;;;5013110;28;20096;-75
2022/06/16 01:51:45;;;;;;;4.38;2.55;;;14.10;99.90;;;;;;5030835;28;20068;-76
2022/06/16 01:54:27;;;;;;;6.88;2.75;;;14.10;99.90;;;;;;5019078;28;20052;-75
2022/06/16 01:57:35;;;;;;;5.82;2.53;;;14.10;99.90;;;;;;5030796;28;20116;-75
2022/06/16 02:00:10;;;;;;;6.15;2.40;;;14.10;99.90;;;;;;5012067;28;20046;-75
2022/06/16 02:02:38;;;;;;;6.00;2.58;;;14.10;99.90;;;;;;5013325;28;20385;-75
2022/06/16 02:05:19;;;;;;;7.20;2.92;;;14.00;99.90;;;;;;5014758;28;20187;-75
2022/06/16 02:07:52;;;;;;;7.65;2.58;;;14.50;99.90;;;;;;5032207;28;20041;-75
2022/06/16 02:10:28;;;;;;;5.13;2.93;;;14.00;99.90;;;;;;5008148;28;20074;-75
2022/06/16 02:12:56;;;;;;;4.55;2.70;;;13.90;99.90;;;;;;5035290;28;20037;-74
2022/06/16 02:15:37;;;;;;;11.25;2.70;;;13.90;99.90;;;;;;4998625;28;20041;-74
2022/06/16 02:18:06;;;;;;;5.43;2.13;;;13.80;99.90;;;;;;5018721;28;20096;-75
2022/06/16 02:20:46;;;;;;;5.75;2.03;;;13.80;99.90;;;;;;5024242;28;20580;-76
2022/06/16 02:23:13;;;;;;;5.40;2.92;;;14.90;99.90;;;;;;5019065;28;20036;-76
2022/06/16 02:25:39;;;;;;;4.03;2.28;;;14.90;99.90;;;;;;5035853;28;20165;-76
2022/06/16 02:28:04;;;;;;;7.85;2.13;;;15.00;99.90;;;;;;5035746;28;20045;-75
2022/06/16 02:30:36;;;;;;;5.28;3.03;;;13.90;99.90;;;;;;5036762;28;20033;-75
2022/06/16 02:33:36;;;;;;;5.00;2.35;;;13.90;99.90;;;;;;5036541;28;20508;-75
2022/06/16 02:36:20;;;;;;;5.75;2.42;;;14.20;99.90;;;;;;5023255;28;20041;-76
2022/06/16 02:39:01;;;;;;;3.33;2.53;;;13.80;99.90;;;;;;5028064;28;20425;-76
2022/06/16 02:41:52;;;;;;;3.08;1.80;;;13.70;99.90;;;;;;5034595;28;20095;-76
2022/06/16 02:44:33;;;;;;;3.85;2.03;;;13.70;99.90;;;;;;5008597;28;20048;-75
2022/06/16 02:47:12;;;;;;;5.65;2.42;;;13.60;99.90;;;;;;5035217;28;20099;-75
2022/06/16 02:49:50;;;;;;;5.15;2.63;;;13.60;99.90;;;;;;5026507;28;20134;-75
2022/06/16 02:52:26;;;;;;;3.33;2.00;;;13.70;99.90;;;;;;5031607;28;20033;-75
2022/06/16 02:55:14;;;;;;;4.82;2.13;;;13.20;99.90;;;;;;5034898;28;20199;-75
2022/06/16 02:57:54;;;;;;;3.72;2.28;;;13.70;99.90;;;;;;5033022;28;20506;-76
2022/06/16 03:00:27;;;;;;;6.35;2.20;;;13.70;99.90;;;;;;5031213;28;20063;-76
2022/06/16 03:02:52;;;;;;;5.10;2.30;;;13.60;99.90;;;;;;5030662;28;20039;-76
2022/06/16 03:05:18;;;;;;;3.28;1.98;;;13.60;99.90;;;;;;5033623;28;20041;-76
2022/06/16 03:07:44;;;;;;;4.22;2.05;;;13.60;99.90;;;;;;5016853;28;20128;-76
2022/06/16 03:10:13;;;;;;;4.00;1.92;;;14.20;99.90;;;;;;5030140;28;20128;-76
2022/06/16 03:12:39;;;;;;;7.70;2.80;;;13.60;99.90;;;;;;5028236;28;20041;-75
2022/06/16 03:15:06;;;;;;;7.60;2.88;;;13.50;99.90;;;;;;5032411;28;20460;-76
2022/06/16 03:17:32;;;;;;;2.33;1.75;;;13.50;99.90;;;;;;5028601;28;20060;-76
2022/06/16 03:19:58;;;;;;;5.05;2.53;;;14.00;99.90;;;;;;5013536;28;20477;-75
2022/06/16 03:22:24;;;;;;;4.68;2.00;;;13.50;99.90;;;;;;5028039;28;20068;-76
2022/06/16 03:24:50;;;;;;;2.92;1.90;;;14.50;99.90;;;;;;5013752;28;20061;-76
2022/06/16 03:27:16;;;;;;;3.92;1.95;;;13.80;99.90;;;;;;5016721;28;20116;-75
2022/06/16 03:29:42;;;;;;;3.70;1.95;;;13.70;99.90;;;;;;5028296;28;20124;-76
2022/06/16 03:32:08;;;;;;;3.78;2.28;;;13.50;99.90;;;;;;5030100;28;20135;-75
2022/06/16 03:34:34;;;;;;;3.53;2.15;;;13.40;99.90;;;;;;5035489;28;20332;-76
2022/06/16 03:36:59;;;;;;;3.83;1.80;;;13.70;99.90;;;;;;5032217;28;20378;-75
2022/06/16 03:39:25;;;;;;;5.03;2.50;;;13.80;99.90;;;;;;5035143;28;20045;-75
2022/06/16 03:41:51;;;;;;;4.95;2.78;;;14.10;99.90;;;;;;5035714;28;20464;-75
2022/06/16 03:44:17;;;;;;;3.10;2.17;;;14.80;99.90;;;;;;5021562;28;20052;-74
2022/06/16 03:46:42;;;;;;;4.38;2.22;;;14.80;99.90;;;;;;5031805;28;20496;-75
2022/06/16 03:49:11;;;;;;;4.45;2.60;;;14.10;99.90;;;;;;5007503;28;20485;-75
2022/06/16 03:51:37;;;;;;;3.08;2.53;;;13.40;99.90;;;;;;5028768;28;20151;-75
2022/06/16 03:54:03;;;;;;;4.15;2.38;;;14.10;99.90;;;;;;5028658;28;20129;-75
2022/06/16 03:56:28;;;;;;;6.10;2.28;;;14.50;99.90;;;;;;5032309;28;20372;-75
2022/06/16 03:58:56;;;;;;;7.90;3.00;;;14.30;99.90;;;;;;5033829;28;20056;-75
2022/06/16 04:01:23;;;;;;;3.10;2.80;;;13.40;99.90;;;;;;5028956;28;20033;-75
2022/06/16 04:04:01;;;;;;;13.73;8.48;;;13.40;99.90;;;;;;5016540;28;20144;-75
2022/06/16 04:06:32;;;;;;;6.88;3.80;;;13.50;99.90;;;;;;5035620;28;20111;-75
2022/06/16 04:08:58;;;;;;;4.22;2.80;;;14.00;99.90;;;;;;5027243;28;20443;-75
2022/06/16 04:11:27;;;;;;;4.43;3.13;;;13.50;99.90;;;;;;5032823;28;20603;-75
2022/06/16 04:14:09;;;;;;;5.82;2.70;;;13.60;99.90;;;;;;5027807;28;20076;-75
2022/06/16 04:16:40;;;;;;;6.47;3.40;;;13.60;99.90;;;;;;5028579;28;20052;-75
2022/06/16 04:19:07;;;;;;;7.43;3.45;;;13.70;99.90;;;;;;5032244;28;20054;-75
2022/06/16 04:21:35;;;;;;;8.10;3.33;;;13.70;99.90;;;;;;5009626;28;20417;-75
2022/06/16 04:24:04;;;;;;;6.82;2.63;;;13.70;99.90;;;;;;5034839;28;20056;-75
2022/06/16 04:26:33;;;;;;;5.97;3.13;;;13.70;99.90;;;;;;5034148;28;20083;-75
2022/06/16 04:28:59;;;;;;;4.40;3.10;;;13.70;99.90;;;;;;5015161;28;20049;-76
2022/06/16 04:31:25;;;;;;;5.10;2.80;;;14.90;99.90;;;;;;5014464;28;20108;-75
2022/06/16 04:33:51;;;;;;;7.30;2.80;;;13.70;99.90;;;;;;5023943;28;20049;-76
2022/06/16 04:36:17;;;;;;;7.07;3.20;;;14.00;99.90;;;;;;5010584;28;20390;-75
2022/06/16 04:38:44;;;;;;;6.20;2.83;;;14.80;99.90;;;;;;5023986;28;20055;-76
2022/06/16 04:41:10;;;;;;;6.50;3.00;;;14.30;99.90;;;;;;5042028;28;20037;-75
2022/06/16 04:43:36;;;;;;;8.35;2.92;;;13.80;99.90;;;;;;5039021;28;20117;-75
2022/06/16 04:46:04;;;;;;;4.22;3.33;;;14.80;99.90;;;;;;5042123;28;20072;-75
2022/06/16 04:48:30;;;;;;;7.20;3.22;;;13.90;99.90;;;;;;5036043;28;20043;-75
2022/06/16 04:50:56;;;;;;;7.03;3.10;;;13.90;99.90;;;;;;5024494;28;20496;-74
2022/06/16 04:53:23;;;;;;;5.25;2.45;;;13.90;99.90;;;;;;5033662;28;20033;-75
2022/06/16 04:55:56;;;;;;;4.03;2.53;;;14.00;99.90;;;;;;5029913;28;20409;-74
2022/06/16 04:58:23;;;;;;;5.63;2.90;;;14.00;99.90;;;;;;5032374;28;20054;-75
2022/06/16 05:00:50;;;;;;;7.10;3.75;;;14.00;99.90;;;;;;5033170;28;20099;-74
2022/06/16 05:03:18;;;;;;;9.07;3.70;;;14.10;99.90;;;;;;5032564;28;20084;-74
2022/06/16 05:06:03;;;;;;;5.50;2.95;;;14.10;99.90;;;;;;5032077;28;20042;-75
2022/06/16 05:08:29;;;;;;;8.18;3.20;;;14.10;99.90;;;;;;5028732;28;20127;-75
2022/06/16 05:10:55;;;;;;;6.57;3.45;;;14.10;99.90;;;;;;5031530;28;20124;-73
2022/06/16 05:13:24;;;;;;;5.90;3.70;;;14.10;99.90;;;;;;5023326;28;20053;-74
2022/06/16 05:15:53;;;;;;;7.13;3.95;;;14.10;99.90;;;;;;5024742;28;20509;-76
2022/06/16 05:18:19;;;;;;;5.95;3.05;;;14.10;99.90;;;;;;5035171;28;20438;-76
2022/06/16 05:20:45;;;;;;;6.45;3.22;;;14.00;99.90;;;;;;5011187;28;20583;-76
2022/06/16 05:23:11;;;;;;;6.75;3.75;;;14.70;99.90;;;;;;5013652;28;20128;-76
2022/06/16 05:25:37;;;;;;;7.75;3.10;;;14.10;99.90;;;;;;5028740;28;20033;-76
2022/06/16 05:28:05;;;;;;;3.65;2.67;;;14.10;99.90;;;;;;5026807;28;20034;-76
2022/06/16 05:30:30;;;;;;;7.50;3.22;;;14.10;99.90;;;;;;5025066;28;20051;-76
2022/06/16 05:32:56;;;;;;;9.43;3.60;;;14.60;99.90;;;;;;5023963;28;20042;-75
2022/06/16 05:35:22;;;;;;;7.07;2.92;;;15.00;99.90;;;;;;5028695;28;20037;-76
2022/06/16 05:37:47;;;;;;;5.68;2.95;;;14.10;99.90;;;;;;5031941;28;20044;-76
2022/06/16 05:40:13;;;;;;;10.55;3.05;;;14.20;99.90;;;;;;5037065;28;20096;-75
2022/06/16 05:42:39;;;;;;;8.82;2.85;;;14.20;99.90;;;;;;5029897;28;20491;-80
2022/06/16 05:45:05;;;;;;;7.70;2.67;;;14.30;99.90;;;;;;4684786;28;10000536;-77
2022/06/16 05:47:31;;;;;;;4.63;2.65;;;14.30;99.90;;;;;;5031122;28;20061;-79
2022/06/16 05:49:58;;;;;;;9.02;3.00;;;15.40;99.90;;;;;;5030320;28;20125;-78
2022/06/16 05:52:23;;;;;;;9.35;2.78;;;14.30;99.90;;;;;;5014230;28;20040;-80
2022/06/16 05:54:50;;;;;;;3.72;2.47;;;14.30;99.90;;;;;;5033757;28;20052;-78
2022/06/16 05:57:16;;;;;;;6.70;2.83;;;14.30;99.90;;;;;;5010305;28;20045;-78
2022/06/16 05:59:42;;;;;;;4.88;3.10;;;14.30;99.90;;;;;;5015140;28;20164;-77
2022/06/16 06:02:18;;;;;;;7.95;4.88;;;14.40;99.90;;;;;;5029074;28;20390;-76
2022/06/16 06:04:48;;;;;;;6.85;4.25;;;14.50;99.90;;;;;;5014910;28;20096;-76
2022/06/16 06:07:14;;;;;;;9.18;3.80;;;14.40;99.90;;;;;;5040188;28;20049;-77
2022/06/16 06:18:11;;;;;;;6.25;3.17;;;14.50;99.90;;;;;;5032560;28;20084;-77
2022/06/16 06:20:37;;;;;;;6.07;2.90;;;14.60;99.90;;;;;;5039388;28;20076;-77
2022/06/16 06:23:03;;;;;;;6.07;2.67;;;14.60;99.90;;;;;;5033771;28;20045;-77
2022/06/16 06:25:28;;;;;;;7.75;2.58;;;14.70;99.90;;;;;;5039715;28;20048;-77
2022/06/16 06:27:54;;;;;;;7.57;4.38;;;14.70;99.90;;;;;;5037594;28;20124;-76
2022/06/16 06:30:22;;;;;;;5.22;2.83;;;14.80;99.90;;;;;;5037062;28;20064;-75
2022/06/16 06:32:48;;;;;;;6.47;2.60;;;14.80;99.90;;;;;;5030268;28;20091;-76
2022/06/16 06:35:19;;;;;;;4.60;1.83;;;15.40;99.90;;;;;;5026245;28;20447;-76
2022/06/16 06:37:45;;;;;;;6.15;1.70;;;14.90;99.90;;;;;;5033934;28;20054;-76
2022/06/16 06:40:29;;;;;;;3.22;2.22;;;14.90;99.90;;;;;;5026816;28;20527;-77
2022/06/16 06:42:54;;;;;;;5.70;1.48;;;15.20;99.90;;;;;;5024806;28;20046;-76
2022/06/16 06:45:21;;;;;;;3.88;1.88;;;15.10;99.90;;;;;;5043215;28;20050;-75
2022/06/16 06:47:47;;;;;;;3.50;1.63;;;15.20;99.90;;;;;;5029992;28;20053;-75
2022/06/16 06:50:19;;;;;;;6.93;1.55;;;15.20;99.90;;;;;;5037025;28;20044;-75
2022/06/16 06:52:45;;;;;;;4.60;0.93;;;15.20;99.90;;;;;;5035345;28;20048;-75
2022/06/16 06:55:11;;;;;;;2.05;0.60;;;15.20;99.90;;;;;;5031389;28;20041;-76
2022/06/16 06:57:36;;;;;;;1.35;0.68;;;15.30;99.90;;;;;;5044194;28;20033;-76
2022/06/16 07:00:11;;;;;;;4.78;0.80;;;15.40;99.90;;;;;;5038635;28;20083;-77
2022/06/16 07:02:37;;;;;;;4.20;1.10;;;15.40;99.90;;;;;;5032037;28;20041;-76
2022/06/16 07:05:03;;;;;;;3.17;0.60;;;15.40;99.90;;;;;;5023778;28;20519;-77
2022/06/16 07:07:29;;;;;;;3.00;0.93;;;15.50;99.90;;;;;;5040027;28;20052;-77
2022/06/16 07:09:55;;;;;;;4.55;0.70;;;15.50;99.90;;;;;;5034510;28;20544;-76
2022/06/16 07:12:21;;;;;;;3.42;0.90;;;16.30;99.90;;;;;;5023750;28;20085;-75
2022/06/16 07:14:49;;;;;;;3.17;0.70;;;15.60;99.90;;;;;;5031918;28;20029;-76
2022/06/16 07:17:17;;;;;;;3.80;0.57;;;15.60;99.90;;;;;;5033292;28;20124;-75
2022/06/16 07:19:43;;;;;;;4.55;0.50;;;15.70;99.90;;;;;;5039213;28;20525;-77
2022/06/16 07:22:09;;;;;;;3.20;0.50;;;15.70;99.90;;;;;;5041570;28;20124;-77
2022/06/16 07:24:38;;;;;;;1.05;0.40;;;15.90;99.90;;;;;;5032960;28;20081;-76
2022/06/16 07:27:04;;;;;;;1.90;0.68;;;15.80;99.90;;;;;;5030126;28;20522;-75
2022/06/16 07:29:33;;;;;;;4.45;0.98;;;15.80;99.90;;;;;;5014916;28;20049;-78
2022/06/16 07:31:59;;;;;;;5.53;2.30;;;16.30;99.90;;;;;;5024622;28;20047;-79
2022/06/16 07:34:27;;;;;;;3.13;1.00;;;15.90;99.90;;;;;;5021499;28;20382;-77
2022/06/16 07:36:54;;;;;;;5.15;2.30;;;15.90;99.90;;;;;;5013818;28;20049;-78
2022/06/16 07:39:20;;;;;;;1.70;0.60;;;16.00;99.90;;;;;;5015906;28;20077;-78
2022/06/16 07:41:45;;;;;;;1.80;0.63;;;16.20;99.90;;;;;;5024958;28;20086;-80
2022/06/16 07:44:14;;;;;;;5.40;0.93;;;16.00;99.90;;;;;;5024935;28;20053;-78
2022/06/16 07:46:43;;;;;;;3.10;1.48;;;16.30;99.90;;;;;;5033193;28;20061;-77
2022/06/16 07:49:15;;;;;;;61.72;37.25;;;16.30;99.90;;;;;;5009421;28;20096;-78
2022/06/16 07:51:42;;;;;;;4.53;1.30;;;16.40;99.90;;;;;;5027027;28;20038;-77
2022/06/16 07:54:08;;;;;;;3.88;1.00;;;16.40;99.90;;;;;;5030553;28;20076;-79
2022/06/16 07:56:34;;;;;;;2.33;0.88;;;16.50;99.90;;;;;;5024062;28;20056;-79
2022/06/16 07:58:59;;;;;;;1.42;1.10;;;16.50;99.90;;;;;;5031934;28;20396;-77
2022/06/16 08:01:25;;;;;;;3.40;1.13;;;16.90;99.90;;;;;;5040934;28;20116;-77
2022/06/16 08:03:50;;;;;;;5.82;1.40;;;17.30;99.90;;;;;;5015192;28;20037;-76
2022/06/16 08:06:18;;;;;;;4.68;1.17;;;16.60;99.90;;;;;;5030695;28;20066;-75
2022/06/16 08:08:44;;;;;;;2.53;0.77;;;16.50;99.90;;;;;;5027465;28;20049;-76
2022/06/16 08:13:57;;;;;;;2.22;0.90;;;17.70;99.90;;;;;;5033633;28;20065;-77
2022/06/16 08:16:23;;;;;;;1.85;1.05;;;17.00;99.90;;;;;;5032683;28;20037;-76
2022/06/16 08:18:48;;;;;;;2.00;0.88;;;16.70;99.90;;;;;;5033722;28;20452;-77
2022/06/16 08:21:14;;;;;;;2.83;0.90;;;16.80;99.90;;;;;;5041500;28;20049;-77
2022/06/16 08:23:39;;;;;;;5.63;1.05;;;16.90;99.90;;;;;;5035299;28;20037;-77
2022/06/16 08:26:05;;;;;;;2.47;1.10;;;17.00;99.90;;;;;;5043480;28;20042;-76
2022/06/16 08:28:32;;;;;;;3.45;1.13;;;17.00;99.90;;;;;;5038304;28;20045;-76
2022/06/16 08:31:00;;;;;;;5.10;1.55;;;17.10;99.90;;;;;;5030539;28;20041;-79
2022/06/16 08:33:26;;;;;;;2.60;1.40;;;18.40;99.90;;;;;;5036488;28;20123;-78
2022/06/16 08:35:51;;;;;;;2.97;0.98;;;18.00;99.90;;;;;;5041920;28;20385;-77
2022/06/16 08:38:17;;;;;;;3.55;1.33;;;17.90;99.90;;;;;;5014354;28;20064;-78
2022/06/16 08:41:11;;;;;;;6.93;1.75;;;17.70;99.90;;;;;;5030414;28;20046;-78
2022/06/16 08:43:41;;;;;;;5.57;1.33;;;17.20;99.90;;;;;;5036060;28;20041;-78
2022/06/16 08:46:08;;;;;;;5.88;1.50;;;17.40;99.90;;;;;;5033239;28;20049;-79
2022/06/16 08:48:43;;;;;;;6.13;1.92;;;17.50;99.90;;;;;;5020625;28;20098;-77
2022/06/16 08:51:33;;;;;;;3.20;1.63;;;17.50;99.90;;;;;;5035211;28;20041;-76
2022/06/16 08:54:26;;;;;;;3.13;1.50;;;17.70;99.90;;;;;;5034039;28;20060;-76
2022/06/16 08:57:20;;;;;;;4.20;1.77;;;17.80;99.90;;;;;;5036412;28;20045;-77
2022/06/16 09:00:13;;;;;;;3.95;1.73;;;17.90;99.90;;;;;;5049367;28;20084;-77
2022/06/16 09:02:49;;;;;;;6.47;1.73;;;18.10;99.90;;;;;;5031526;28;20157;-78
2022/06/16 09:05:53;;;;;;;8.52;2.72;;;18.30;99.90;;;;;;5030149;28;20080;-77
2022/06/16 09:08:30;;;;;;;6.68;2.40;;;18.20;99.90;;;;;;5030196;28;20069;-78
2022/06/16 09:11:18;;;;;;;6.47;1.70;;;18.20;99.90;;;;;;5033924;28;20125;-76
2022/06/16 09:13:58;;;;;;;2.83;1.70;;;18.30;99.90;;;;;;5042732;28;20041;-79
2022/06/16 09:17:15;;;;;;;8.10;2.10;;;18.80;99.90;;;;;;5032496;28;20065;-82
2022/06/16 09:19:54;;;;;;;3.58;1.30;;;18.40;99.90;;;;;;4997477;28;20057;-76
2022/06/16 09:22:57;;;;;;;2.88;1.52;;;18.40;99.90;;;;;;5032716;28;20052;-77
2022/06/16 09:25:57;;;;;;;4.38;2.28;;;18.40;99.90;;;;;;5017624;28;20493;-77
2022/06/16 09:28:31;;;;;;;4.70;1.90;;;18.40;99.90;;;;;;5030442;28;20551;-77
2022/06/16 09:31:01;;;;;;;4.20;1.83;;;18.60;99.90;;;;;;5031778;28;20033;-78
2022/06/16 09:33:38;;;;;;;7.00;2.38;;;18.60;99.90;;;;;;5032980;28;20394;-78
2022/06/16 09:36:18;;;;;;;3.28;2.05;;;18.60;99.90;;;;;;5016525;28;20472;-78
2022/06/16 09:38:50;;;;;;;4.85;2.20;;;18.70;99.90;;;;;;5032482;28;20087;-76
2022/06/16 09:44:26;;;;;;;4.82;2.40;;;18.70;99.90;;;;;;5030268;28;20071;-76
2022/06/16 09:46:56;;;;;;;4.90;2.25;;;19.10;99.90;;;;;;5033183;28;20489;-77
2022/06/16 09:49:39;;;;;;;5.50;2.17;;;18.80;99.90;;;;;;5038833;28;20037;-76
2022/06/16 09:52:12;;;;;;;3.28;1.77;;;19.60;99.90;;;;;;5033959;28;20484;-77
2022/06/16 09:54:43;;;;;;;2.45;2.00;;;19.00;99.90;;;;;;5031018;28;20041;-76
2022/06/16 09:57:26;;;;;;;6.05;2.50;;;19.10;99.90;;;;;;5034158;28;20489;-77
2022/06/16 10:00:03;;;;;;;5.78;2.38;;;20.00;99.90;;;;;;5033691;28;20056;-78
2022/06/16 10:02:40;;;;;;;4.40;2.40;;;19.20;99.90;;;;;;5030250;28;20148;-77
2022/06/16 10:05:13;;;;;;;4.10;2.15;;;20.10;99.90;;;;;;5033526;28;20055;-77
2022/06/16 10:07:46;;;;;;;4.05;2.38;;;20.00;99.90;;;;;;5033467;28;20037;-77
2022/06/16 10:10:21;;;;;;;4.60;2.20;;;19.50;99.90;;;;;;5021567;28;20033;-77
2022/06/16 10:13:15;;;;;;;5.70;1.70;;;19.50;99.90;;;;;;5031230;28;20124;-77
2022/06/16 10:16:07;;;;;;;8.13;2.25;;;19.70;99.90;;;;;;5013130;28;20443;-76
2022/06/16 10:18:33;;;;;;;5.35;2.55;;;19.80;99.90;;;;;;5029577;28;20061;-77
2022/06/16 10:21:02;;;;;;;3.95;2.13;;;19.80;99.90;;;;;;5030889;28;20037;-75
2022/06/16 10:23:44;;;;;;;2.55;2.20;;;20.00;99.90;;;;;;5015090;28;20056;-78
2022/06/16 10:26:10;;;;;;;4.72;2.22;;;20.10;99.90;;;;;;5014868;28;20036;-78
2022/06/16 10:29:00;;;;;;;4.25;2.30;;;20.50;99.90;;;;;;5031543;28;20124;-75
2022/06/16 10:31:45;;;;;;;11.15;8.60;;;20.30;99.90;;;;;;5036797;28;20041;-77
2022/06/16 10:34:37;;;;;;;4.85;3.53;;;20.40;99.90;;;;;;5035761;28;20045;-80
2022/06/16 10:37:21;;;;;;;4.57;2.63;;;20.50;99.90;;;;;;5041100;28;20132;-79
2022/06/16 10:39:54;;;;;;;4.55;2.35;;;20.50;99.90;;;;;;5025231;28;20685;-79
2022/06/16 10:42:26;;;;;;;3.78;2.28;;;20.50;99.90;;;;;;5035549;28;20042;-80
2022/06/16 10:44:56;;;;;;;3.45;1.80;;;20.50;99.90;;;;;;5035873;28;20041;-80
2022/06/16 10:47:32;;;;;;;4.30;2.20;;;20.70;99.90;;;;;;5034298;28;20041;-80
2022/06/16 10:49:58;;;;;;;3.35;1.95;;;20.70;99.90;;;;;;5034726;28;20131;-77
2022/06/16 10:52:32;;;;;;;4.10;1.70;;;20.70;99.90;;;;;;5031470;28;20041;-78
2022/06/16 10:55:00;;;;;;;3.90;2.10;;;20.70;99.90;;;;;;5030096;28;20103;-78
2022/06/16 10:57:32;;;;;;;3.75;1.85;;;20.80;99.90;;;;;;5020159;28;20131;-80
2022/06/16 11:00:09;;;;;;;7.70;1.52;;;20.90;99.90;;;;;;5015064;28;20168;-76
2022/06/16 11:02:36;;;;;;;3.33;1.48;;;21.10;99.90;;;;;;5032503;28;20059;-76
2022/06/16 11:05:13;;;;;;;1.63;1.40;;;21.30;99.90;;;;;;5038922;28;20163;-77
2022/06/16 11:07:42;;;;;;;3.97;1.80;;;21.30;99.90;;;;;;5004891;28;20152;-75
2022/06/16 11:10:12;;;;;;;4.65;1.80;;;21.40;99.90;;;;;;5027423;28;20080;-75
2022/06/16 11:12:41;;;;;;;4.05;1.73;;;21.40;99.90;;;;;;5031780;28;20080;-74
2022/06/16 11:15:25;;;;;;;4.53;1.58;;;21.60;99.90;;;;;;5033018;28;20033;-75
2022/06/16 11:17:56;;;;;;;6.07;2.28;;;21.70;99.90;;;;;;5011890;28;20100;-75
2022/06/16 11:20:34;;;;;;;2.70;1.77;;;21.60;99.90;;;;;;5029461;28;20053;-75
2022/06/16 11:23:00;;;;;;;6.10;1.55;;;21.70;99.90;;;;;;5013425;28;20549;-77
2022/06/16 11:25:31;;;;;;;5.05;2.28;;;21.60;99.90;;;;;;5032574;28;20045;-76
2022/06/16 11:28:09;;;;;;;5.35;2.10;;;21.60;99.90;;;;;;5029816;28;20045;-77
2022/06/16 11:30:55;;;;;;;3.90;1.40;;;21.70;99.90;;;;;;5037999;28;20041;-78
2022/06/16 11:36:30;;;;;;;1.75;1.50;;;21.90;99.90;;;;;;5033010;28;20041;-77
2022/06/16 11:39:17;;;;;;;5.15;1.92;;;21.90;99.90;;;;;;5040749;28;20052;-78
2022/06/16 11:41:50;;;;;;;6.30;2.28;;;21.90;99.90;;;;;;5031704;28;20045;-78
2022/06/16 11:44:31;;;;;;;3.80;2.00;;;21.70;99.90;;;;;;5033271;28;20073;-76
2022/06/16 11:47:28;;;;;;;4.25;1.95;;;21.80;99.90;;;;;;5037649;28;20037;-77
2022/06/16 11:50:20;;;;;;;3.45;2.60;;;21.90;99.90;;;;;;5022894;28;20076;-77
2022/06/16 11:53:12;;;;;;;6.57;1.90;;;22.00;97.60;;;;;;5034536;28;20041;-78
2022/06/16 11:55:46;;;;;;;5.47;1.42;;;22.00;98.40;;;;;;5011636;28;20072;-77
2022/06/16 11:58:35;;;;;;;3.92;2.03;;;22.10;97.50;;;;;;5039589;28;20049;-78
2022/06/16 12:01:15;;;;;;;4.65;1.90;;;22.30;98.10;;;;;;5024085;28;20041;-76
2022/06/16 12:04:14;;;;;;;2.33;1.50;;;22.50;96.90;;;;;;5030534;28;20365;-77
2022/06/16 12:07:05;;;;;;;3.40;1.58;;;22.70;97.50;;;;;;5031052;28;20584;-78
2022/06/16 12:10:08;;;;;;;4.25;1.50;;;22.90;96.90;;;;;;5026951;28;20041;-77
2022/06/16 12:13:12;;;;;;;2.45;1.20;;;23.10;95.90;;;;;;5035833;28;20052;-77
2022/06/16 12:15:50;;;;;;;2.93;1.23;;;23.20;96.90;;;;;;5037826;28;20049;-78
2022/06/16 12:18:39;;;;;;;2.72;1.25;;;23.20;94.70;;;;;;5023052;28;20497;-77
2022/06/16 12:21:17;;;;;;;4.78;1.65;;;23.30;94.70;;;;;;5036966;28;21435;-78
2022/06/16 12:24:07;;;;;;;2.78;1.42;;;23.50;94.50;;;;;;5018833;28;20138;-79
2022/06/16 12:26:39;;;;;;;2.05;1.63;;;23.50;92.40;;;;;;5036948;28;20045;-78
2022/06/16 12:29:13;;;;;;;4.13;1.58;;;23.60;92.50;;;;;;5036494;28;20037;-78
2022/06/16 12:32:02;;;;;;;4.15;1.40;;;23.60;90.50;;;;;;5022122;28;20049;-78
2022/06/16 12:34:41;;;;;;;2.17;1.30;;;23.40;90.20;;;;;;5034275;28;20088;-78
2022/06/16 12:37:12;;;;;;;5.30;1.60;;;23.30;90.70;;;;;;5039708;28;20393;-78
2022/06/16 12:40:17;;;;;;;4.45;1.63;;;23.40;91.40;;;;;;5034042;28;20052;-79
2022/06/16 12:42:54;;;;;;;2.55;1.33;;;23.50;91.60;;;;;;5032628;28;20060;-77
2022/06/16 12:45:26;;;;;;;4.88;1.70;;;23.70;91.50;;;;;;5036636;28;20103;-78
2022/06/16 12:48:01;;;;;;;5.80;1.88;;;24.00;91.20;;;;;;5037208;28;20084;-78
2022/06/16 12:50:38;;;;;;;3.88;2.58;;;24.10;90.00;;;;;;5037651;28;20044;-79
2022/06/16 12:53:30;;;;;;;3.47;1.88;;;24.10;87.60;;;;;;5043150;28;20045;-78
2022/06/16 12:56:25;;;;;;;6.88;1.60;;;24.00;85.50;;;;;;5001648;28;20053;-78
2022/06/16 12:58:57;;;;;;;7.55;5.40;;;24.10;87.90;;;;;;5035888;28;20033;-78
2022/06/16 13:01:22;;;;;;;5.15;3.17;;;24.30;88.80;;;;;;5037854;28;20047;-78
2022/06/16 13:04:03;;;;;;;3.05;2.38;;;24.50;87.60;;;;;;5029742;28;20037;-78
2022/06/16 13:06:30;;;;;;;2.00;1.55;;;24.60;86.40;;;;;;5028852;28;20056;-78
2022/06/16 13:09:04;;;;;;;5.35;1.67;;;24.50;84.80;;;;;;5030345;28;20072;-78
2022/06/16 13:11:32;;;;;;;;;;;24.30;82.90;;;;;;5022176;28;20037;-77
2022/06/16 13:14:07;;;;;;;4.00;1.90;;;24.20;85.60;;;;;;5031402;28;20085;-78
2022/06/16 13:16:38;;;;;;;5.88;1.17;;;24.20;83.60;;;;;;5040901;28;20037;-78
2022/06/16 13:19:25;;;;;;;2.90;1.50;;;24.20;81.50;;;;;;5040086;28;20054;-79
2022/06/16 13:21:57;;;;;;;4.28;1.30;;;24.20;82.00;;;;;;5031462;28;20037;-78
2022/06/16 13:24:54;;;;;;;3.97;1.33;;;24.30;82.20;;;;;;5013825;28;20123;-78
2022/06/16 13:27:31;;;;;;;4.65;1.25;;;24.40;81.20;;;;;;5032570;28;20110;-78
2022/06/16 13:29:59;;;;;;;2.95;1.48;;;24.40;82.70;;;;;;5032461;28;20068;-78
2022/06/16 13:32:50;;;;;;;5.32;1.77;;;24.60;82.90;;;;;;5039636;28;20507;-77
2022/06/16 13:35:16;;;;;;;3.42;1.75;;;24.80;82.80;;;;;;5030200;28;20049;-77
2022/06/16 13:38:10;;;;;;;3.65;1.38;;;24.80;79.40;;;;;;5023768;28;20051;-78
2022/06/16 13:40:44;;;;;;;3.30;1.17;;;24.60;80.20;;;;;;5039124;28;20041;-77